Time;durP1;ratioP1;P1;durP2;ratioP2;P2;SDS_P1;SDS_P2;PMS_P1;PMS_P2;Temp;Humidity;BMP_temperature;BMP_pressure;BME280_temperature;BME280_humidity;BME280_pressure;Samples;Min_cycle;Max_cycle;Signal;HPM_P1;HPM_P2
2023/12/22 00:02:45;;;;;;;9.20;4.70;;;15.80;99.90;;;;;;10435544;28;20198;-82
2023/12/22 00:07:48;;;;;;;12.47;4.20;;;15.60;99.90;;;;;;10430798;28;20239;-81
2023/12/22 00:12:51;;;;;;;5.10;2.23;;;15.80;99.90;;;;;;10454338;28;20626;-81
2023/12/22 00:17:53;;;;;;;9.87;3.63;;;15.80;99.90;;;;;;10476796;28;21000;-82
2023/12/22 00:22:56;;;;;;;7.43;3.93;;;15.90;99.90;;;;;;10471744;28;20196;-82
2023/12/22 00:27:58;;;;;;;11.77;5.20;;;15.90;99.90;;;;;;10456560;28;20227;-82
2023/12/22 00:33:02;;;;;;;9.77;3.50;;;15.70;99.90;;;;;;10449967;28;20663;-82
2023/12/22 00:38:04;;;;;;;7.83;2.43;;;15.60;99.90;;;;;;10451925;28;20248;-81
2023/12/22 00:43:07;;;;;;;8.13;3.03;;;15.50;99.90;;;;;;10451923;28;20250;-81
2023/12/22 00:48:09;;;;;;;6.43;3.67;;;15.50;99.90;;;;;;10452042;28;20227;-82
2023/12/22 00:53:12;;;;;;;6.27;2.97;;;15.70;99.90;;;;;;10451649;28;20215;-82
2023/12/22 00:58:15;;;;;;;9.50;3.90;;;15.60;99.90;;;;;;10451195;28;20207;-81
2023/12/22 01:03:17;;;;;;;5.10;2.73;;;16.00;99.90;;;;;;10451066;28;20277;-81
2023/12/22 01:08:20;;;;;;;4.40;2.73;;;15.90;99.90;;;;;;10457439;28;20609;-80
2023/12/22 01:13:24;;;;;;;5.30;1.77;;;15.80;99.90;;;;;;10493111;28;20206;-80
2023/12/22 01:18:29;;;;;;;7.83;3.17;;;15.70;99.90;;;;;;10494238;28;20292;-81
2023/12/22 01:23:32;;;;;;;9.37;4.60;;;16.10;99.90;;;;;;10492396;28;20275;-81
2023/12/22 01:28:35;;;;;;;8.37;3.27;;;15.80;99.90;;;;;;10493446;28;20210;-81
2023/12/22 01:33:37;;;;;;;3.63;1.73;;;16.40;99.90;;;;;;10494154;28;20876;-81
2023/12/22 01:38:40;;;;;;;3.67;2.13;;;16.40;99.90;;;;;;10493491;28;20202;-81
2023/12/22 01:43:42;;;;;;;7.23;2.03;;;16.50;99.90;;;;;;10493269;28;20240;-80
2023/12/22 01:48:46;;;;;;;13.57;3.23;;;16.40;99.90;;;;;;10493855;28;20237;-81
2023/12/22 01:53:49;;;;;;;8.60;3.10;;;16.30;99.90;;;;;;10493753;28;20275;-81
2023/12/22 01:58:55;;;;;;;8.47;2.07;;;16.40;99.90;;;;;;10493368;28;20592;-81
2023/12/22 02:03:58;;;;;;;7.37;3.47;;;16.40;99.90;;;;;;10493191;28;20255;-81
2023/12/22 02:09:03;;;;;;;2.37;1.20;;;16.50;99.90;;;;;;10496305;28;20233;-81
2023/12/22 02:14:07;;;;;;;10.03;1.77;;;16.40;99.90;;;;;;10470943;28;20674;-80
2023/12/22 02:19:38;;;;;;;1.97;0.93;;;16.30;99.90;;;;;;10456573;28;20331;-81
2023/12/22 02:24:41;;;;;;;10.07;2.67;;;16.10;99.90;;;;;;10468753;28;20323;-81
2023/12/22 02:29:51;;;;;;;5.03;2.07;;;16.30;99.90;;;;;;10436146;28;20269;-81
2023/12/22 02:34:57;;;;;;;6.37;1.77;;;16.30;99.90;;;;;;10442627;28;20227;-80
2023/12/22 02:40:00;;;;;;;4.40;1.53;;;16.20;99.90;;;;;;10421804;28;20611;-81
2023/12/22 02:45:05;;;;;;;7.70;2.30;;;16.00;99.90;;;;;;10475834;28;20261;-81
2023/12/22 02:50:08;;;;;;;7.83;1.43;;;16.10;99.90;;;;;;10454756;28;20253;-81
2023/12/22 02:55:11;;;;;;;11.40;1.73;;;16.10;99.90;;;;;;10451010;28;20232;-81
2023/12/22 03:00:14;;;;;;;8.57;2.60;;;16.10;99.90;;;;;;10411480;28;20243;-81
2023/12/22 03:05:16;;;;;;;5.87;2.10;;;16.20;99.90;;;;;;10435645;28;20304;-81
2023/12/22 03:10:19;;;;;;;4.67;1.27;;;16.40;99.90;;;;;;10423294;28;20290;-80
2023/12/22 03:15:22;;;;;;;5.23;2.17;;;16.20;99.90;;;;;;10415380;28;20288;-81
2023/12/22 03:20:25;;;;;;;2.97;1.37;;;16.10;99.90;;;;;;10432673;28;20237;-81
2023/12/22 03:25:27;;;;;;;3.27;1.23;;;16.20;99.90;;;;;;10452346;28;20262;-80
2023/12/22 03:30:30;;;;;;;7.73;2.47;;;16.20;99.90;;;;;;10452283;28;20266;-81
2023/12/22 03:35:32;;;;;;;5.93;1.13;;;16.50;99.90;;;;;;10456801;28;20223;-81
2023/12/22 03:40:34;;;;;;;7.27;2.10;;;16.20;99.90;;;;;;10452836;28;20758;-81
2023/12/22 03:45:37;;;;;;;3.03;1.47;;;16.10;99.90;;;;;;10430164;28;20301;-80
2023/12/22 03:50:40;;;;;;;4.53;1.60;;;16.20;99.90;;;;;;10437012;28;20296;-81
2023/12/22 03:55:43;;;;;;;5.83;1.47;;;16.30;99.90;;;;;;10477348;28;20235;-81
2023/12/22 04:00:46;;;;;;;9.00;2.57;;;16.10;99.90;;;;;;10410739;28;20236;-81
2023/12/22 04:05:48;;;;;;;7.30;0.90;;;16.10;99.90;;;;;;10416669;28;20242;-81
2023/12/22 04:10:51;;;;;;;6.50;2.20;;;16.10;99.90;;;;;;10414914;28;20746;-81
2023/12/22 04:15:53;;;;;;;6.53;2.07;;;15.90;99.90;;;;;;10410028;28;20227;-81
2023/12/22 04:20:57;;;;;;;2.60;1.10;;;16.00;99.90;;;;;;10410655;28;20243;-81
2023/12/22 04:25:59;;;;;;;5.70;1.20;;;16.00;99.90;;;;;;10409691;28;20289;-81
2023/12/22 04:31:02;;;;;;;8.07;1.83;;;16.00;99.90;;;;;;10409103;28;20250;-81
2023/12/22 04:36:05;;;;;;;5.73;0.80;;;15.50;99.90;;;;;;10409172;28;20288;-81
2023/12/22 04:41:07;;;;;;;6.60;1.40;;;15.80;99.90;;;;;;10440065;28;20292;-81
2023/12/22 04:46:09;;;;;;;4.47;0.97;;;15.60;99.90;;;;;;10432005;28;20305;-81
2023/12/22 04:51:12;;;;;;;4.93;1.20;;;15.70;99.90;;;;;;10408755;28;20269;-81
2023/12/22 04:56:15;;;;;;;3.43;1.00;;;15.40;99.90;;;;;;10408682;28;20235;-81
2023/12/22 05:01:18;;;;;;;4.50;1.33;;;15.20;99.90;;;;;;10443375;28;20222;-81
2023/12/22 05:06:20;;;;;;;4.13;2.30;;;15.00;99.90;;;;;;10489495;28;20679;-80
2023/12/22 05:11:23;;;;;;;6.90;1.37;;;15.30;99.90;;;;;;10432534;28;20230;-80
2023/12/22 05:16:25;;;;;;;5.43;1.53;;;15.60;99.90;;;;;;10479664;28;20310;-80
2023/12/22 05:21:28;;;;;;;1.43;0.60;;;15.50;99.90;;;;;;10454049;28;20230;-81
2023/12/22 05:26:31;;;;;;;8.93;1.53;;;14.30;99.90;;;;;;10449133;28;20258;-80
2023/12/22 05:31:34;;;;;;;7.53;1.77;;;13.70;99.90;;;;;;10449569;28;20230;-80
2023/12/22 05:36:37;;;;;;;8.87;1.23;;;13.40;99.90;;;;;;10458519;28;20637;-80
2023/12/22 05:41:39;;;;;;;5.47;1.07;;;13.00;99.90;;;;;;10479084;28;20234;-81
2023/12/22 05:46:42;;;;;;;4.37;1.23;;;13.70;99.90;;;;;;10456648;28;20262;-81
2023/12/22 05:51:44;;;;;;;4.90;1.50;;;13.90;99.90;;;;;;10455102;28;20234;-81
2023/12/22 05:56:51;;;;;;;7.83;1.13;;;14.00;99.90;;;;;;10455888;28;20883;-81
2023/12/22 06:01:56;;;;;;;4.03;1.20;;;14.20;99.90;;;;;;10477443;28;20225;-81
2023/12/22 06:06:59;;;;;;;5.73;1.30;;;14.20;99.90;;;;;;10496479;28;20299;-81
2023/12/22 06:12:02;;;;;;;4.23;1.30;;;14.40;99.90;;;;;;10487744;28;20304;-81
2023/12/22 06:17:04;;;;;;;3.23;1.10;;;14.20;99.90;;;;;;10480061;28;20230;-81
2023/12/22 06:22:08;;;;;;;10.40;1.43;;;14.00;99.90;;;;;;10478129;28;20222;-80
2023/12/22 06:27:10;;;;;;;3.80;1.40;;;14.00;99.90;;;;;;10457722;28;20320;-80
2023/12/22 06:32:13;;;;;;;4.90;1.27;;;13.90;99.90;;;;;;10465525;28;20271;-80
2023/12/22 06:37:16;;;;;;;2.07;0.80;;;14.00;99.90;;;;;;10462879;28;20261;-79
2023/12/22 06:42:19;;;;;;;3.70;1.23;;;13.90;99.90;;;;;;10454909;28;20242;-80
2023/12/22 06:47:21;;;;;;;5.90;1.20;;;13.40;99.90;;;;;;10454438;28;20252;-80
2023/12/22 06:52:24;;;;;;;5.37;0.97;;;14.10;99.90;;;;;;10453651;28;20238;-80
2023/12/22 06:57:26;;;;;;;15.90;1.27;;;13.90;99.90;;;;;;10463110;28;20235;-81
2023/12/22 07:02:30;;;;;;;2.93;1.30;;;13.80;99.90;;;;;;10453314;28;20250;-81
2023/12/22 07:07:34;;;;;;;14.93;1.63;;;13.40;99.90;;;;;;10454241;28;20317;-81
2023/12/22 07:12:39;;;;;;;5.73;1.87;;;13.60;99.90;;;;;;10453741;28;20688;-81
2023/12/22 07:17:42;;;;;;;8.13;1.60;;;13.80;99.90;;;;;;10453412;28;20250;-81
2023/12/22 07:22:45;;;;;;;5.10;0.77;;;14.20;99.90;;;;;;10453802;28;20625;-81
2023/12/22 07:27:48;;;;;;;5.10;0.93;;;14.10;99.90;;;;;;10453230;28;20266;-81
2023/12/22 07:32:52;;;;;;;3.60;1.27;;;14.30;99.90;;;;;;10453463;28;20247;-80
2023/12/22 07:37:55;;;;;;;16.00;1.87;;;13.60;99.90;;;;;;10483863;28;20656;-80
2023/12/22 07:42:58;;;;;;;4.13;1.23;;;12.70;99.90;;;;;;10492947;28;20230;-79
2023/12/22 07:48:01;;;;;;;4.43;1.13;;;13.00;99.90;;;;;;10493121;28;20254;-80
2023/12/22 07:53:04;;;;;;;4.80;1.37;;;13.20;99.90;;;;;;10452317;28;20222;-80
2023/12/22 07:58:09;;;;;;;4.80;1.70;;;13.90;99.90;;;;;;10464905;28;20238;-81
2023/12/22 08:03:13;;;;;;;3.87;1.70;;;12.60;99.90;;;;;;10464222;28;20226;-81
2023/12/22 08:08:15;;;;;;;1.00;0.90;;;13.00;99.90;;;;;;10492694;28;20288;-81
2023/12/22 08:13:18;;;;;;;3.60;0.77;;;13.90;99.90;;;;;;10489210;28;20226;-81
2023/12/22 08:18:21;;;;;;;5.07;1.60;;;14.70;99.90;;;;;;10488291;28;20229;-81
2023/12/22 08:23:24;;;;;;;6.87;1.70;;;15.50;99.90;;;;;;10473931;28;20259;-81
2023/12/22 08:28:32;;;;;;;3.03;1.40;;;16.00;99.90;;;;;;10478567;28;20250;-81
2023/12/22 08:33:34;;;;;;;4.93;1.53;;;16.20;99.90;;;;;;10449332;28;20230;-81
2023/12/22 08:38:40;;;;;;;4.23;1.40;;;16.10;99.90;;;;;;10449679;28;20295;-81
2023/12/22 08:43:43;;;;;;;2.27;0.90;;;15.90;99.90;;;;;;10450161;28;20288;-80
2023/12/22 08:48:45;;;;;;;2.40;0.90;;;15.20;99.90;;;;;;10450179;28;20279;-80
2023/12/22 08:53:50;;;;;;;3.27;1.30;;;14.70;99.90;;;;;;10490741;28;20291;-81
2023/12/22 08:58:54;;;;;;;3.40;0.60;;;14.50;99.90;;;;;;10491096;28;20292;-81
2023/12/22 09:03:57;;;;;;;2.07;0.70;;;14.60;99.90;;;;;;10487220;28;20230;-81
2023/12/22 09:09:00;;;;;;;2.33;0.70;;;14.70;99.90;;;;;;10448070;28;20293;-81
2023/12/22 09:14:04;;;;;;;3.87;1.23;;;15.40;99.90;;;;;;10449609;28;20601;-81
2023/12/22 09:19:07;;;;;;;5.50;0.87;;;15.90;99.90;;;;;;10447954;28;20748;-81
2023/12/22 09:24:11;;;;;;;1.50;0.60;;;16.00;99.90;;;;;;10448614;28;20316;-81
2023/12/22 09:29:14;;;;;;;3.97;1.10;;;15.90;99.90;;;;;;10448992;28;20300;-80
2023/12/22 09:34:17;;;;;;;2.13;0.80;;;15.70;99.90;;;;;;10448219;28;20283;-81
2023/12/22 09:39:19;;;;;;;1.83;0.77;;;15.80;99.90;;;;;;10476357;28;20620;-81
2023/12/22 09:44:22;;;;;;;1.40;0.67;;;14.60;99.90;;;;;;10489653;28;20245;-81
2023/12/22 09:49:25;;;;;;;4.77;0.70;;;13.70;99.90;;;;;;10489780;28;20249;-81
2023/12/22 09:54:28;;;;;;;1.90;0.80;;;13.60;99.90;;;;;;10488160;28;20681;-81
2023/12/22 09:59:33;;;;;;;1.10;0.70;;;14.10;99.90;;;;;;10489652;28;20292;-81
2023/12/22 10:04:35;;;;;;;4.10;1.10;;;14.20;99.90;;;;;;10489402;28;20261;-81
2023/12/22 10:09:38;;;;;;;3.77;0.93;;;13.90;99.90;;;;;;10488190;28;20723;-81
2023/12/22 10:14:42;;;;;;;4.60;0.77;;;14.00;99.90;;;;;;10487688;28;20292;-81
2023/12/22 10:19:45;;;;;;;2.90;0.80;;;14.00;99.90;;;;;;10489094;28;20255;-81
2023/12/22 10:24:48;;;;;;;7.20;1.10;;;14.70;99.90;;;;;;10488647;28;20387;-80
2023/12/22 10:29:54;;;;;;;67.43;30.87;;;14.70;99.90;;;;;;10468529;28;20246;-79
2023/12/22 10:34:57;;;;;;;40.53;17.40;;;13.10;99.90;;;;;;10454668;28;20234;-80
2023/12/22 10:40:03;;;;;;;30.20;11.93;;;13.80;99.90;;;;;;10480353;28;20234;-81
2023/12/22 10:45:07;;;;;;;36.43;16.43;;;14.30;99.90;;;;;;10466720;28;20273;-81
2023/12/22 10:50:13;;;;;;;19.13;9.47;;;14.60;99.90;;;;;;10453306;28;20272;-80
2023/12/22 10:55:16;;;;;;;22.83;11.73;;;14.50;99.90;;;;;;10447928;28;20284;-80
2023/12/22 11:00:21;;;;;;;32.53;11.30;;;14.70;99.90;;;;;;10451183;28;20231;-81
2023/12/22 11:05:26;;;;;;;19.03;7.63;;;14.60;99.90;;;;;;10448165;28;20230;-81
2023/12/22 11:10:31;;;;;;;19.13;6.57;;;15.30;99.90;;;;;;10450085;28;20278;-80
2023/12/22 11:15:35;;;;;;;12.47;5.43;;;15.20;99.90;;;;;;10449940;28;20289;-80
2023/12/22 11:20:39;;;;;;;23.60;9.67;;;15.20;99.90;;;;;;10453052;28;20231;-80
2023/12/22 11:25:44;;;;;;;17.67;9.83;;;15.40;99.90;;;;;;10450126;28;20262;-80
2023/12/22 11:30:50;;;;;;;14.30;7.00;;;15.40;99.90;;;;;;10453832;28;20235;-81
2023/12/22 11:35:56;;;;;;;15.93;6.43;;;15.20;99.90;;;;;;10450872;28;20237;-80
2023/12/22 11:41:01;;;;;;;17.50;10.23;;;14.90;99.90;;;;;;10449751;28;20255;-81
2023/12/22 11:46:04;;;;;;;13.73;6.97;;;15.50;99.90;;;;;;10451348;28;20296;-81
2023/12/22 11:51:17;;;;;;;11.13;6.37;;;15.90;99.90;;;;;;10448762;28;20227;-81
2023/12/22 11:56:20;;;;;;;11.43;5.93;;;16.00;99.90;;;;;;10449360;28;20228;-81
2023/12/22 12:01:24;;;;;;;11.77;5.23;;;16.30;99.90;;;;;;10447758;28;20226;-81
2023/12/22 12:06:27;;;;;;;16.37;9.40;;;15.70;99.90;;;;;;10455125;28;20811;-80
2023/12/22 12:11:52;;;;;;;28.57;12.73;;;14.80;99.90;;;;;;10490740;28;20696;-80
2023/12/22 12:17:06;;;;;;;30.20;11.20;;;15.80;99.90;;;;;;10480696;28;20230;-80
2023/12/22 12:22:11;;;;;;;18.70;7.87;;;16.20;99.90;;;;;;10473720;28;20674;-81
2023/12/22 12:27:21;;;;;;;38.43;16.50;;;15.10;99.90;;;;;;10489443;28;20726;-80
2023/12/22 12:32:24;;;;;;;20.97;7.77;;;;;;;;;;10491238;28;20279;-80
2023/12/22 12:37:28;;;;;;;120.33;56.33;;;;;;;;;;10461683;28;20231;-81
2023/12/22 12:42:31;;;;;;;168.87;71.47;;;14.20;99.90;;;;;;10450304;28;20383;-80
2023/12/22 12:47:34;;;;;;;88.97;41.57;;;;;;;;;;10447879;28;20316;-81
2023/12/22 12:52:36;;;;;;;158.73;81.43;;;15.20;99.90;;;;;;10450965;28;20228;-80
2023/12/22 12:57:39;;;;;;;119.20;57.40;;;;;;;;;;10449116;28;20292;-80
2023/12/22 13:02:42;;;;;;;101.43;51.87;;;;;;;;;;10449200;28;20659;-80
2023/12/22 13:07:45;;;;;;;136.97;70.07;;;16.20;99.90;;;;;;10475691;28;20249;-80
2023/12/22 13:12:50;;;;;;;121.47;62.07;;;16.30;99.90;;;;;;10452638;28;20284;-79
2023/12/22 13:17:53;;;;;;;76.67;33.37;;;15.90;99.90;;;;;;10429925;28;20231;-80
2023/12/22 13:22:56;;;;;;;75.53;35.83;;;16.20;99.90;;;;;;10448428;28;20235;-79
2023/12/22 13:27:59;;;;;;;73.50;32.40;;;15.70;99.90;;;;;;10470993;28;20250;-80
2023/12/22 13:33:02;;;;;;;45.83;21.33;;;15.60;99.90;;;;;;10486074;28;20674;-80
2023/12/22 13:38:08;;;;;;;72.23;34.20;;;15.70;99.90;;;;;;10448475;28;20238;-80
2023/12/22 13:43:11;;;;;;;5.60;2.80;;;15.70;99.90;;;;;;10446873;28;20259;-81
2023/12/22 13:48:16;;;;;;;148.90;64.73;;;14.10;99.90;;;;;;10448037;28;20788;-81
2023/12/22 13:53:18;;;;;;;147.00;70.10;;;12.50;99.90;;;;;;10448324;28;20226;-80
2023/12/22 13:58:21;;;;;;;116.63;56.13;;;14.90;99.90;;;;;;10465873;28;20234;-81
2023/12/22 14:03:24;;;;;;;79.07;36.40;;;15.70;99.90;;;;;;10493742;28;20225;-81
2023/12/22 14:08:26;;;;;;;123.97;58.70;;;15.70;99.90;;;;;;10472763;28;20259;-81
2023/12/22 14:13:29;;;;;;;107.20;53.80;;;16.10;99.90;;;;;;10454805;28;20300;-82
2023/12/22 14:18:31;;;;;;;89.80;37.77;;;15.90;99.90;;;;;;10477351;28;20242;-81
2023/12/22 14:23:34;;;;;;;78.33;42.20;;;15.80;99.90;;;;;;10480864;28;20671;-81
2023/12/22 14:28:36;;;;;;;12.27;2.70;;;15.50;99.90;;;;;;10437772;28;20308;-80
2023/12/22 14:33:39;;;;;;;12.63;3.23;;;14.20;99.90;;;;;;10454493;28;20886;-81
2023/12/22 14:38:41;;;;;;;14.37;3.43;;;13.90;99.90;;;;;;10452025;28;20237;-82
2023/12/22 14:43:44;;;;;;;15.87;5.23;;;14.20;99.90;;;;;;10095864;28;10000576;-81
2023/12/22 14:48:46;;;;;;;10.57;3.83;;;14.10;99.90;;;;;;10464480;28;20348;-81
2023/12/22 14:53:49;;;;;;;15.07;4.67;;;14.00;99.90;;;;;;10433708;28;20254;-81
2023/12/22 14:58:51;;;;;;;7.83;3.17;;;14.60;99.90;;;;;;10418251;28;20239;-80
2023/12/22 15:03:54;;;;;;;8.37;2.63;;;15.00;99.90;;;;;;10447104;28;20294;-80
2023/12/22 15:08:58;;;;;;;2.87;1.10;;;14.70;99.90;;;;;;10426262;28;20311;-80
2023/12/22 15:14:01;;;;;;;7.97;2.50;;;14.30;99.90;;;;;;10113630;28;9999754;-80
2023/12/22 15:19:03;;;;;;;8.00;2.90;;;14.30;99.90;;;;;;10453148;28;20259;-80
2023/12/22 15:24:06;;;;;;;7.53;1.97;;;14.60;99.90;;;;;;10491764;28;20238;-80
2023/12/22 15:29:09;;;;;;;4.40;1.90;;;15.10;99.90;;;;;;10473471;28;20258;-80
2023/12/22 15:34:12;;;;;;;8.77;2.63;;;14.70;99.90;;;;;;10441963;28;20682;-80
2023/12/22 15:39:15;;;;;;;6.00;2.07;;;14.60;99.90;;;;;;10407920;28;20297;-80
2023/12/22 15:44:17;;;;;;;9.83;2.97;;;14.60;99.90;;;;;;10427510;28;20234;-80
2023/12/22 15:49:20;;;;;;;5.27;1.97;;;14.60;99.90;;;;;;10448598;28;20319;-83
2023/12/22 15:54:23;;;;;;;8.00;1.73;;;14.50;99.90;;;;;;10438704;28;20816;-80
2023/12/22 15:59:26;;;;;;;11.83;1.80;;;14.00;99.90;;;;;;10429625;28;20238;-80
2023/12/22 16:04:30;;;;;;;3.77;1.27;;;14.60;99.90;;;;;;10451859;28;20695;-80
2023/12/22 16:09:37;;;;;;;5.50;1.33;;;14.30;99.90;;;;;;10445427;28;20432;-80
2023/12/22 16:14:39;;;;;;;2.33;1.50;;;14.00;99.90;;;;;;10440772;28;20288;-80
2023/12/22 16:19:42;;;;;;;3.67;1.13;;;14.40;99.90;;;;;;10406542;28;20249;-80
2023/12/22 16:24:45;;;;;;;4.33;2.30;;;14.70;99.90;;;;;;10435331;28;20258;-80
2023/12/22 16:29:47;;;;;;;5.43;1.40;;;15.40;99.90;;;;;;10435179;28;20304;-80
2023/12/22 16:34:50;;;;;;;8.97;1.57;;;14.40;99.90;;;;;;10446453;28;20292;-80
2023/12/22 16:39:53;;;;;;;5.70;2.00;;;14.00;99.90;;;;;;10446469;28;20918;-80
2023/12/22 16:44:59;;;;;;;2.90;1.27;;;14.30;99.90;;;;;;10447390;28;20292;-80
2023/12/22 16:50:01;;;;;;;8.33;1.40;;;14.80;99.90;;;;;;10447209;28;20931;-80
2023/12/22 16:55:04;;;;;;;10.80;5.07;;;15.30;99.90;;;;;;10447780;28;20243;-80
2023/12/22 17:00:09;;;;;;;4.73;3.17;;;15.40;99.90;;;;;;10450149;28;20243;-80
2023/12/22 17:05:12;;;;;;;10.60;5.27;;;15.00;99.90;;;;;;10446325;28;20683;-80
2023/12/22 17:10:16;;;;;;;4.10;2.33;;;14.50;99.90;;;;;;10448489;28;21010;-80
2023/12/22 17:15:18;;;;;;;7.73;3.50;;;13.80;99.90;;;;;;10445054;28;20240;-79
2023/12/22 17:20:21;;;;;;;10.87;4.47;;;14.60;99.90;;;;;;10445998;28;20276;-80
2023/12/22 17:25:23;;;;;;;8.33;2.50;;;15.10;99.90;;;;;;10466990;28;20296;-80
2023/12/22 17:30:27;;;;;;;5.27;2.20;;;14.70;99.90;;;;;;10445909;28;20339;-80
2023/12/22 17:35:30;;;;;;;13.47;2.03;;;14.60;99.90;;;;;;10448644;28;20272;-80
2023/12/22 17:40:32;;;;;;;8.30;2.07;;;14.70;99.90;;;;;;10452023;28;20280;-80
2023/12/22 17:45:35;;;;;;;7.20;3.57;;;14.40;99.90;;;;;;10453252;28;21037;-80
2023/12/22 17:50:38;;;;;;;8.10;2.83;;;14.60;99.90;;;;;;10453318;28;20262;-80
2023/12/22 17:55:40;;;;;;;8.83;2.40;;;14.60;99.90;;;;;;10462412;28;20232;-80
2023/12/22 18:00:43;;;;;;;4.63;1.93;;;14.90;99.90;;;;;;10455802;28;20308;-80
2023/12/22 18:05:45;;;;;;;5.17;1.90;;;14.60;99.90;;;;;;10453924;28;20231;-80
2023/12/22 18:10:48;;;;;;;2.60;1.50;;;14.70;99.90;;;;;;10460788;28;20259;-80
2023/12/22 18:15:50;;;;;;;4.03;1.80;;;14.30;99.90;;;;;;10115649;28;9999904;-80
2023/12/22 18:20:53;;;;;;;2.67;1.47;;;14.10;99.90;;;;;;10453782;28;20268;-81
2023/12/22 18:25:55;;;;;;;3.47;1.83;;;14.00;99.90;;;;;;10451508;28;20262;-80
2023/12/22 18:30:59;;;;;;;3.63;1.37;;;13.90;99.90;;;;;;10452116;28;20685;-80
2023/12/22 18:36:01;;;;;;;3.10;1.63;;;13.40;99.90;;;;;;10449658;28;20229;-80
2023/12/22 18:41:04;;;;;;;5.30;2.40;;;13.40;99.90;;;;;;10446988;28;20739;-80
2023/12/22 18:46:07;;;;;;;7.07;1.70;;;13.80;99.90;;;;;;10451265;28;20280;-80
2023/12/22 18:51:13;;;;;;;4.50;1.67;;;13.60;99.90;;;;;;10450086;28;20250;-80
2023/12/22 18:56:25;;;;;;;3.20;1.80;;;14.50;99.90;;;;;;10452105;28;20300;-80
2023/12/22 19:01:27;;;;;;;2.37;1.13;;;14.70;99.90;;;;;;10431171;28;20273;-80
2023/12/22 19:06:45;;;;;;;1.47;1.10;;;14.60;99.90;;;;;;10451841;28;20296;-80
2023/12/22 19:11:48;;;;;;;6.03;2.10;;;14.10;99.90;;;;;;10449679;28;21045;-80
2023/12/22 19:16:50;;;;;;;3.10;1.10;;;13.80;99.90;;;;;;10462106;28;20266;-80
2023/12/22 19:21:53;;;;;;;2.03;1.13;;;13.80;99.90;;;;;;10436734;28;20661;-80
2023/12/22 19:26:56;;;;;;;1.70;1.07;;;13.90;99.90;;;;;;10436427;28;20320;-80
2023/12/22 19:31:58;;;;;;;2.70;0.93;;;13.50;99.90;;;;;;10449857;28;20254;-80
2023/12/22 19:37:00;;;;;;;3.13;1.60;;;13.40;99.90;;;;;;10449651;28;20234;-80
2023/12/22 19:42:03;;;;;;;6.43;2.17;;;12.20;99.90;;;;;;10450553;28;20235;-80
2023/12/22 19:47:06;;;;;;;2.20;1.30;;;13.60;99.90;;;;;;10440330;28;20226;-80
2023/12/22 19:52:09;;;;;;;5.10;1.40;;;13.80;99.90;;;;;;10464522;28;20250;-81
2023/12/22 19:57:12;;;;;;;4.10;1.27;;;14.10;99.90;;;;;;10451594;28;20632;-80
2023/12/22 20:02:14;;;;;;;7.93;1.10;;;13.80;99.90;;;;;;10451099;28;20230;-80
2023/12/22 20:07:17;;;;;;;5.67;1.70;;;13.50;99.90;;;;;;10458048;28;20276;-81
2023/12/22 20:12:21;;;;;;;4.13;1.33;;;13.80;99.90;;;;;;10452071;28;20277;-80
2023/12/22 20:17:24;;;;;;;3.47;1.23;;;13.60;99.90;;;;;;10450511;28;20226;-80
2023/12/22 20:22:26;;;;;;;4.33;1.07;;;13.80;99.90;;;;;;10449000;28;20687;-80
2023/12/22 20:27:29;;;;;;;2.60;1.03;;;13.80;99.90;;;;;;10079258;28;9999723;-80
2023/12/22 20:32:31;;;;;;;2.03;1.03;;;13.70;99.90;;;;;;10431894;28;20215;-80
2023/12/22 20:37:34;;;;;;;3.03;1.20;;;14.70;99.90;;;;;;10444195;28;20291;-80
2023/12/22 20:42:36;;;;;;;1.23;0.50;;;15.00;99.90;;;;;;10446408;28;20239;-80
2023/12/22 20:47:39;;;;;;;2.50;1.00;;;14.30;99.90;;;;;;10446361;28;20230;-80
2023/12/22 20:52:41;;;;;;;2.53;1.13;;;14.00;99.90;;;;;;10445473;28;20296;-81
2023/12/22 20:57:44;;;;;;;4.73;1.30;;;14.30;99.90;;;;;;10449272;28;20281;-80
2023/12/22 21:02:50;;;;;;;2.47;0.93;;;14.70;99.90;;;;;;10408169;28;20626;-81
2023/12/22 21:07:53;;;;;;;2.10;0.77;;;14.70;99.90;;;;;;10441295;28;20272;-80
2023/12/22 21:12:55;;;;;;;2.73;1.43;;;14.70;99.90;;;;;;10432079;28;20297;-80
2023/12/22 21:17:57;;;;;;;2.53;0.80;;;14.60;99.90;;;;;;10407655;28;20239;-80
2023/12/22 21:23:00;;;;;;;6.47;1.70;;;14.30;99.90;;;;;;10438843;28;20230;-81
2023/12/22 21:28:16;;;;;;;3.83;1.03;;;14.10;99.90;;;;;;10473656;28;20655;-80
2023/12/22 21:33:19;;;;;;;1.23;0.57;;;14.30;99.90;;;;;;10407526;28;20681;-81
2023/12/22 21:38:22;;;;;;;2.70;0.97;;;13.40;99.90;;;;;;10434601;28;20601;-81
2023/12/22 21:43:24;;;;;;;2.83;0.97;;;13.50;99.90;;;;;;10422374;28;21129;-80
2023/12/22 21:48:26;;;;;;;3.00;0.63;;;13.80;99.90;;;;;;10447509;28;20324;-80
2023/12/22 21:53:29;;;;;;;4.27;1.33;;;13.60;99.90;;;;;;10447385;28;20641;-81
2023/12/22 21:58:32;;;;;;;4.90;1.60;;;13.60;99.90;;;;;;10436921;28;20231;-81
2023/12/22 22:03:37;;;;;;;1.03;0.80;;;13.60;99.90;;;;;;10443097;28;20640;-81
2023/12/22 22:08:40;;;;;;;7.73;0.73;;;13.30;99.90;;;;;;10444241;28;20244;-80
2023/12/22 22:13:42;;;;;;;1.00;0.43;;;13.00;99.90;;;;;;10445949;28;20246;-80
2023/12/22 22:18:45;;;;;;;2.23;0.80;;;13.60;99.90;;;;;;10447152;28;20238;-80
2023/12/22 22:23:48;;;;;;;1.10;0.53;;;13.50;99.90;;;;;;10449005;28;20300;-80
2023/12/22 22:28:51;;;;;;;2.00;0.70;;;13.40;99.90;;;;;;10457359;28;20246;-81
2023/12/22 22:33:53;;;;;;;3.17;1.47;;;13.80;99.90;;;;;;10434573;28;20221;-81
2023/12/22 22:38:56;;;;;;;3.00;1.33;;;13.60;99.90;;;;;;10496333;28;20675;-80
2023/12/22 22:43:58;;;;;;;2.83;0.97;;;13.10;99.90;;;;;;10495945;28;20238;-81
2023/12/22 22:49:01;;;;;;;2.00;0.87;;;13.80;99.90;;;;;;10455853;28;21008;-81
2023/12/22 22:54:04;;;;;;;5.67;1.00;;;13.90;99.90;;;;;;10453736;28;20238;-80
2023/12/22 22:59:07;;;;;;;1.63;1.00;;;13.50;99.90;;;;;;10453681;28;20288;-81
2023/12/22 23:04:09;;;;;;;2.23;0.60;;;13.70;99.90;;;;;;10482627;28;20229;-81
2023/12/22 23:09:14;;;;;;;1.73;0.87;;;13.60;99.90;;;;;;10494313;28;20250;-81
2023/12/22 23:14:16;;;;;;;3.97;1.70;;;13.90;99.90;;;;;;10483306;28;20293;-81
2023/12/22 23:19:19;;;;;;;1.17;0.77;;;13.90;99.90;;;;;;10455990;28;20286;-80
2023/12/22 23:24:21;;;;;;;6.93;1.27;;;14.30;99.90;;;;;;10445576;28;20693;-81
2023/12/22 23:29:24;;;;;;;5.47;1.43;;;14.50;99.90;;;;;;10454890;28;20250;-81
2023/12/22 23:34:26;;;;;;;7.20;1.03;;;14.10;99.90;;;;;;10454721;28;20227;-80
2023/12/22 23:39:31;;;;;;;1.60;0.90;;;13.30;99.90;;;;;;10446652;28;20253;-81
2023/12/22 23:44:33;;;;;;;4.77;0.83;;;13.70;99.90;;;;;;10438280;28;20644;-80
2023/12/22 23:49:36;;;;;;;1.33;0.57;;;13.40;99.90;;;;;;10406761;28;20278;-80
2023/12/22 23:54:39;;;;;;;1.63;0.60;;;13.00;99.90;;;;;;10450337;28;20273;-80
2023/12/22 23:59:41;;;;;;;2.90;0.60;;;13.90;99.90;;;;;;10450368;28;20296;-80
